createdAt,value
2018-05-04T00:02:08.324Z,13.80
2018-05-04T00:04:34.870Z,13.48
2018-05-04T00:07:01.411Z,13.32
2018-05-04T00:09:27.928Z,13.32
2018-05-04T00:11:54.463Z,13.13
2018-05-04T00:14:20.955Z,12.95
2018-05-04T00:16:47.508Z,13.27
2018-05-04T00:19:14.048Z,13.75
2018-05-04T00:21:40.593Z,12.90
2018-05-04T00:24:07.178Z,15.05
2018-05-04T00:26:33.683Z,14.60
2018-05-04T00:29:00.590Z,15.13
2018-05-04T00:31:27.151Z,14.55
2018-05-04T00:33:53.656Z,13.68
2018-05-04T00:36:20.208Z,14.18
2018-05-04T00:38:46.725Z,14.98
2018-05-04T00:41:13.275Z,13.93
2018-05-04T00:43:39.823Z,14.13
2018-05-04T00:46:06.343Z,14.75
2018-05-04T00:48:32.892Z,13.62
2018-05-04T00:50:59.782Z,12.98
2018-05-04T00:53:26.333Z,12.48
2018-05-04T00:55:52.880Z,10.80
2018-05-04T00:58:19.469Z,11.50
2018-05-04T01:00:46.024Z,13.50
2018-05-04T01:03:12.568Z,12.52
2018-05-04T01:05:39.114Z,11.17
2018-05-04T01:08:05.658Z,11.65
2018-05-04T01:10:32.166Z,11.23
2018-05-04T01:12:58.724Z,11.25
2018-05-04T01:15:25.294Z,11.35
2018-05-04T01:17:51.875Z,11.30
2018-05-04T01:20:18.776Z,11.20
2018-05-04T01:22:45.313Z,10.27
2018-05-04T01:25:11.852Z,11.00
2018-05-04T01:27:38.369Z,10.70
2018-05-04T01:30:05.330Z,11.80
2018-05-04T01:32:32.235Z,9.85
2018-05-04T01:34:58.740Z,10.73
2018-05-04T01:37:25.644Z,11.02
2018-05-04T01:39:52.158Z,12.48
2018-05-04T01:42:18.703Z,12.10
2018-05-04T01:44:45.254Z,11.20
2018-05-04T01:47:11.759Z,12.32
2018-05-04T01:49:38.304Z,11.65
2018-05-04T01:52:04.827Z,11.60
2018-05-04T01:54:31.383Z,11.85
2018-05-04T01:56:57.948Z,10.95
2018-05-04T01:59:24.471Z,11.52
2018-05-04T02:01:51.023Z,9.90
2018-05-04T02:04:17.550Z,9.60
2018-05-04T02:06:44.098Z,8.93
2018-05-04T02:09:10.677Z,9.50
2018-05-04T02:11:37.209Z,10.60
2018-05-04T02:14:03.780Z,11.38
2018-05-04T02:16:30.300Z,10.20
2018-05-04T02:18:56.835Z,10.00
2018-05-04T02:21:23.459Z,9.02
2018-05-04T02:23:49.992Z,11.12
2018-05-04T02:26:16.545Z,11.30
2018-05-04T02:28:43.047Z,10.10
2018-05-04T02:31:09.635Z,11.30
2018-05-04T02:33:36.218Z,10.80
2018-05-04T02:36:02.813Z,11.13
2018-05-04T02:38:29.721Z,10.20
2018-05-04T02:40:56.223Z,10.20
2018-05-04T02:43:23.143Z,9.80
2018-05-04T02:45:49.679Z,10.68
2018-05-04T02:48:16.198Z,9.40
2018-05-04T02:50:42.806Z,9.80
2018-05-04T02:53:09.357Z,9.40
2018-05-04T02:55:36.284Z,9.45
2018-05-04T02:58:02.855Z,8.43
2018-05-04T03:00:29.755Z,9.95
2018-05-04T03:02:56.267Z,10.00
2018-05-04T03:05:23.175Z,9.68
2018-05-04T03:07:49.706Z,10.50
2018-05-04T03:10:16.254Z,9.48
2018-05-04T03:12:42.803Z,9.90
2018-05-04T03:15:09.305Z,9.65
2018-05-04T03:17:36.235Z,9.30
2018-05-04T03:20:02.864Z,9.50
2018-05-04T03:22:29.444Z,10.15
2018-05-04T03:24:55.979Z,9.70
2018-05-04T03:27:22.489Z,10.43
2018-05-04T03:29:49.042Z,10.15
2018-05-04T03:32:15.552Z,10.48
2018-05-04T03:34:42.455Z,10.07
2018-05-04T03:37:08.991Z,10.00
2018-05-04T03:39:35.510Z,10.60
2018-05-04T03:42:02.422Z,11.73
2018-05-04T03:44:28.942Z,11.02
2018-05-04T03:47:14.103Z,10.32
2018-05-04T03:49:40.655Z,10.70
2018-05-04T03:52:07.191Z,10.88
2018-05-04T03:54:33.721Z,11.43
2018-05-04T03:57:07.135Z,11.20
2018-05-04T03:59:46.179Z,11.35
2018-05-04T04:02:25.352Z,11.63
2018-05-04T04:04:51.844Z,11.82
2018-05-04T04:07:18.355Z,12.20
2018-05-04T04:09:44.891Z,10.95
2018-05-04T04:12:11.431Z,13.20
2018-05-04T04:14:37.948Z,12.60
2018-05-04T04:17:04.862Z,13.30
2018-05-04T04:19:31.388Z,14.00
2018-05-04T04:21:57.943Z,13.40
2018-05-04T04:24:24.538Z,14.23
2018-05-04T04:26:51.484Z,14.20
2018-05-04T04:29:18.098Z,14.30
2018-05-04T04:31:44.643Z,13.60
2018-05-04T04:34:11.190Z,13.18
2018-05-04T04:36:37.736Z,12.63
2018-05-04T04:39:04.331Z,13.73
2018-05-04T04:41:31.246Z,15.15
2018-05-04T04:43:57.764Z,14.80
2018-05-04T04:46:24.296Z,13.73
2018-05-04T04:48:50.838Z,13.93
2018-05-04T04:51:17.724Z,14.30
2018-05-04T04:53:44.266Z,14.27
2018-05-04T04:56:10.810Z,14.75
2018-05-04T04:58:37.341Z,16.50
2018-05-04T05:01:04.263Z,15.03
2018-05-04T05:03:30.964Z,14.63
2018-05-04T05:05:57.535Z,16.65
2018-05-04T05:08:24.040Z,14.85
2018-05-04T05:10:51.272Z,14.40
2018-05-04T05:13:17.820Z,14.00
2018-05-04T05:15:44.318Z,15.07
2018-05-04T05:18:10.849Z,15.98
2018-05-04T05:20:37.388Z,15.10
2018-05-04T05:23:04.351Z,15.55
2018-05-04T05:25:30.887Z,15.48
2018-05-04T05:27:57.820Z,14.20
2018-05-04T05:30:24.392Z,15.50
2018-05-04T05:32:51.275Z,14.35
2018-05-04T05:35:17.832Z,13.70
2018-05-04T05:37:44.395Z,14.95
2018-05-04T05:40:10.907Z,14.40
2018-05-04T05:42:37.459Z,14.37
2018-05-04T05:45:04.020Z,13.15
2018-05-04T05:47:30.580Z,13.30
2018-05-04T05:49:57.132Z,13.07
2018-05-04T05:52:23.667Z,13.73
2018-05-04T05:54:50.201Z,14.00
2018-05-04T05:57:16.711Z,14.07
2018-05-04T06:02:17.232Z,13.10
2018-05-04T06:04:43.768Z,13.18
2018-05-04T06:07:10.376Z,13.27
2018-05-04T06:09:37.264Z,14.02
2018-05-04T06:12:03.879Z,13.48
2018-05-04T06:14:30.766Z,13.20
2018-05-04T06:16:57.314Z,13.00
2018-05-04T06:19:23.860Z,13.70
2018-05-04T06:21:50.356Z,12.90
2018-05-04T06:24:16.906Z,12.70
2018-05-04T06:26:43.427Z,12.57
2018-05-04T06:29:09.966Z,11.90
2018-05-04T06:31:36.583Z,13.77
2018-05-04T06:34:03.175Z,12.80
2018-05-04T06:36:29.818Z,13.50
2018-05-04T06:38:56.457Z,12.95
2018-05-04T06:41:22.971Z,13.30
2018-05-04T06:43:49.503Z,12.43
2018-05-04T06:46:16.415Z,13.80
2018-05-04T06:48:42.938Z,13.43
2018-05-04T06:51:09.475Z,14.00
2018-05-04T06:53:35.995Z,13.62
2018-05-04T06:56:02.928Z,13.55
2018-05-04T06:58:29.469Z,12.50
2018-05-04T07:00:55.980Z,12.55
2018-05-04T07:03:22.514Z,13.57
2018-05-04T07:05:49.025Z,13.93
2018-05-04T07:08:15.559Z,13.43
2018-05-04T07:10:42.107Z,12.90
2018-05-04T07:13:08.606Z,13.20
2018-05-04T07:15:35.165Z,13.38
2018-05-04T07:18:01.675Z,13.50
2018-05-04T07:20:28.224Z,13.50
2018-05-04T07:22:55.140Z,13.75
2018-05-04T07:25:21.643Z,13.77
2018-05-04T07:27:48.183Z,14.45
2018-05-04T07:30:14.687Z,14.45
2018-05-04T07:32:41.226Z,13.07
2018-05-04T07:35:07.767Z,12.52
2018-05-04T07:37:34.330Z,13.18
2018-05-04T07:40:00.871Z,12.37
2018-05-04T07:42:27.405Z,13.43
2018-05-04T07:44:53.970Z,13.52
2018-05-04T07:47:20.536Z,14.52
2018-05-04T07:49:47.499Z,15.00
2018-05-04T07:52:14.403Z,13.77
2018-05-04T07:54:40.912Z,14.43
2018-05-04T07:57:07.881Z,14.75
2018-05-04T07:59:34.418Z,14.45
2018-05-04T08:02:00.933Z,14.73
2018-05-04T08:04:27.520Z,13.55
2018-05-04T08:06:54.060Z,15.70
2018-05-04T08:09:20.595Z,14.23
2018-05-04T08:11:47.516Z,13.90
2018-05-04T08:14:14.050Z,15.10
2018-05-04T08:16:40.601Z,14.85
2018-05-04T08:19:07.111Z,15.00
2018-05-04T08:21:33.707Z,14.93
2018-05-04T08:24:00.259Z,14.57
2018-05-04T08:26:26.771Z,15.30
2018-05-04T08:28:53.316Z,15.38
2018-05-04T08:31:19.826Z,14.80
2018-05-04T08:33:46.740Z,15.40
2018-05-04T08:36:13.306Z,16.00
2018-05-04T08:38:39.890Z,15.27
2018-05-04T08:41:06.439Z,16.10
2018-05-04T08:43:32.952Z,16.90
2018-05-04T08:45:59.506Z,15.63
2018-05-04T08:48:26.090Z,16.23
2018-05-04T08:50:52.659Z,15.25
2018-05-04T08:53:19.172Z,17.23
2018-05-04T08:55:45.690Z,16.70
2018-05-04T08:58:12.224Z,17.55
2018-05-04T09:00:38.767Z,17.45
2018-05-04T09:03:05.283Z,18.33
2018-05-04T09:05:31.838Z,18.50
2018-05-04T09:07:58.363Z,18.25
2018-05-04T09:10:24.910Z,19.20
2018-05-04T09:12:51.476Z,18.50
2018-05-04T09:15:18.003Z,19.35
2018-05-04T09:17:44.544Z,19.67
2018-05-04T09:20:11.049Z,19.80
2018-05-04T09:22:37.597Z,19.37
2018-05-04T09:25:04.143Z,19.47
2018-05-04T09:27:30.670Z,18.52
2018-05-04T09:29:57.243Z,20.23
2018-05-04T09:32:23.762Z,19.65
2018-05-04T09:34:50.303Z,22.55
2018-05-04T09:37:16.845Z,20.40
2018-05-04T09:39:43.432Z,22.00
2018-05-04T09:42:10.048Z,20.90
2018-05-04T09:44:36.621Z,21.50
2018-05-04T09:47:03.127Z,20.42
2018-05-04T09:49:29.675Z,21.33
2018-05-04T09:51:56.239Z,20.80
2018-05-04T09:54:22.759Z,21.02
2018-05-04T09:56:49.303Z,21.62
2018-05-04T09:59:15.804Z,20.55
2018-05-04T10:01:42.359Z,21.27
2018-05-04T10:04:09.320Z,22.23
2018-05-04T10:06:36.226Z,20.95
2018-05-04T10:09:02.955Z,21.62
2018-05-04T10:11:29.807Z,20.58
2018-05-04T10:13:56.358Z,22.00
2018-05-04T10:16:22.916Z,20.33
2018-05-04T10:18:49.440Z,21.23
2018-05-04T10:21:16.049Z,20.55
2018-05-04T10:23:42.631Z,20.48
2018-05-04T10:26:09.179Z,21.55
2018-05-04T10:28:36.122Z,21.33
2018-05-04T10:31:03.011Z,21.35
2018-05-04T10:33:29.648Z,21.98
2018-05-04T10:35:56.211Z,20.73
2018-05-04T10:38:22.786Z,21.50
2018-05-04T10:40:49.412Z,21.23
2018-05-04T10:43:15.918Z,21.58
2018-05-04T10:45:42.868Z,21.10
2018-05-04T10:48:09.775Z,20.85
2018-05-04T10:50:36.335Z,20.17
2018-05-04T10:53:10.115Z,19.20
2018-05-04T10:55:36.711Z,19.85
2018-05-04T10:58:03.295Z,19.80
2018-05-04T11:00:30.204Z,18.62
2018-05-04T11:02:56.753Z,19.75
2018-05-04T11:05:23.357Z,19.27
2018-05-04T11:07:49.848Z,19.85
2018-05-04T11:10:16.391Z,20.70
2018-05-04T11:12:42.967Z,19.37
2018-05-04T11:15:09.899Z,20.23
2018-05-04T11:17:36.429Z,20.27
2018-05-04T11:20:03.045Z,19.55
2018-05-04T11:22:29.663Z,20.08
2018-05-04T11:24:56.175Z,18.75
2018-05-04T11:27:22.739Z,19.30
2018-05-04T11:29:49.237Z,19.98
2018-05-04T11:32:15.787Z,19.83
2018-05-04T11:34:42.331Z,18.70
2018-05-04T11:37:08.862Z,19.75
2018-05-04T11:39:35.831Z,19.90
2018-05-04T11:42:02.408Z,20.23
2018-05-04T11:44:28.995Z,20.95
2018-05-04T11:46:55.544Z,21.50
2018-05-04T11:49:22.047Z,22.13
2018-05-04T11:51:48.590Z,22.75
2018-05-04T11:54:15.120Z,21.90
2018-05-04T11:56:41.699Z,24.87
2018-05-04T11:59:08.282Z,23.50
2018-05-04T12:01:34.915Z,24.70
2018-05-04T12:04:01.483Z,23.62
2018-05-04T12:06:28.492Z,24.20
2018-05-04T12:08:55.096Z,23.42
2018-05-04T12:11:21.727Z,25.12
2018-05-04T12:13:48.664Z,25.07
2018-05-04T12:16:15.448Z,23.70
2018-05-04T12:18:42.824Z,24.42
2018-05-04T12:21:10.229Z,21.73
2018-05-04T12:23:37.240Z,24.40
2018-05-04T12:26:04.241Z,24.65
2018-05-04T12:28:38.863Z,24.03
2018-05-04T12:31:05.420Z,25.10
2018-05-04T12:33:31.980Z,22.98
2018-05-04T12:35:58.532Z,23.15
2018-05-04T12:38:25.063Z,22.17
2018-05-04T12:40:51.620Z,25.40
2018-05-04T12:43:18.204Z,24.12
2018-05-04T12:45:45.164Z,24.00
2018-05-04T12:48:12.107Z,22.40
2018-05-04T12:50:38.651Z,21.45
2018-05-04T12:53:05.299Z,21.12
2018-05-04T12:55:31.884Z,23.80
2018-05-04T12:57:58.464Z,21.77
2018-05-04T13:00:25.465Z,23.73
2018-05-04T13:02:52.047Z,21.00
2018-05-04T13:05:18.605Z,21.27
2018-05-04T13:07:45.187Z,22.77
2018-05-04T13:10:11.748Z,22.25
2018-05-04T13:12:38.381Z,19.95
2018-05-04T13:15:04.956Z,20.43
2018-05-04T13:17:31.547Z,20.27
2018-05-04T13:19:58.084Z,21.27
2018-05-04T13:22:24.618Z,20.37
2018-05-04T13:24:51.200Z,21.10
2018-05-04T13:27:18.147Z,20.67
2018-05-04T13:29:45.073Z,19.70
2018-05-04T13:32:11.672Z,19.60
2018-05-04T13:34:38.205Z,20.05
2018-05-04T13:37:05.198Z,19.50
2018-05-04T13:39:31.739Z,19.98
2018-05-04T13:41:58.284Z,19.40
2018-05-04T13:44:24.935Z,19.50
2018-05-04T13:46:51.552Z,18.92
2018-05-04T13:49:18.552Z,18.62
2018-05-04T13:51:45.152Z,19.48
2018-05-04T13:54:11.714Z,20.27
2018-05-04T13:56:38.653Z,20.60
2018-05-04T13:59:05.182Z,18.73
2018-05-04T14:01:31.796Z,17.33
2018-05-04T14:03:58.425Z,18.60
2018-05-04T14:06:25.390Z,18.33
2018-05-04T14:08:51.975Z,19.23
2018-05-04T14:11:18.498Z,17.70
2018-05-04T14:13:45.090Z,18.37
2018-05-04T14:16:11.656Z,18.33
2018-05-04T14:18:38.568Z,17.90
2018-05-04T14:21:05.147Z,18.90
2018-05-04T14:23:31.672Z,18.42
2018-05-04T14:25:58.277Z,18.67
2018-05-04T14:28:24.863Z,18.52
2018-05-04T14:30:51.380Z,18.67
2018-05-04T14:33:17.928Z,18.25
2018-05-04T14:35:44.472Z,17.90
2018-05-04T14:38:11.019Z,17.25
2018-05-04T14:40:37.584Z,18.48
2018-05-04T14:43:04.132Z,17.08
2018-05-04T14:45:30.695Z,18.12
2018-05-04T14:47:57.245Z,18.05
2018-05-04T14:50:24.263Z,18.65
2018-05-04T14:52:50.977Z,18.30
2018-05-04T14:55:17.534Z,18.30
2018-05-04T14:57:44.103Z,17.30
2018-05-04T15:00:10.633Z,16.73
2018-05-04T15:02:37.583Z,17.35
2018-05-04T15:05:04.536Z,15.63
2018-05-04T15:07:31.086Z,16.52
2018-05-04T15:09:58.037Z,15.60
2018-05-04T15:12:24.969Z,15.30
2018-05-04T15:14:51.546Z,15.20
2018-05-04T15:17:18.520Z,16.17
2018-05-04T15:19:45.049Z,15.18
2018-05-04T15:22:11.979Z,16.42
2018-05-04T15:24:38.528Z,15.55
2018-05-04T15:27:05.973Z,15.13
2018-05-04T15:29:32.537Z,14.57
2018-05-04T15:31:59.069Z,15.27
2018-05-04T15:34:25.641Z,15.57
2018-05-04T15:36:52.192Z,15.38
2018-05-04T15:39:18.758Z,14.65
2018-05-04T15:41:45.731Z,14.65
2018-05-04T15:44:12.628Z,14.15
2018-05-04T15:46:39.220Z,13.85
2018-05-04T15:49:12.047Z,12.60
2018-05-04T15:51:44.517Z,12.98
2018-05-04T15:54:11.048Z,12.63
2018-05-04T15:56:38.029Z,13.10
2018-05-04T15:59:04.597Z,12.20
2018-05-04T16:01:31.125Z,12.57
2018-05-04T16:03:57.722Z,12.27
2018-05-04T16:06:24.324Z,13.00
2018-05-04T16:08:50.872Z,12.70
2018-05-04T16:11:17.445Z,11.75
2018-05-04T16:13:44.081Z,12.48
2018-05-04T16:16:10.588Z,12.00
2018-05-04T16:18:37.505Z,13.38
2018-05-04T16:21:04.081Z,13.10
2018-05-04T16:23:31.012Z,12.50
2018-05-04T16:25:57.637Z,13.57
2018-05-04T16:28:24.266Z,13.17
2018-05-04T16:30:50.856Z,13.98
2018-05-04T16:33:17.420Z,14.82
2018-05-04T16:35:44.001Z,14.95
2018-05-04T16:38:10.571Z,16.10
2018-05-04T16:40:37.115Z,16.35
2018-05-04T16:43:03.708Z,19.00
2018-05-04T16:45:30.265Z,17.35
2018-05-04T16:48:03.837Z,15.10
2018-05-04T16:50:30.469Z,15.07
2018-05-04T16:52:56.981Z,15.60
2018-05-04T16:55:24.035Z,14.95
2018-05-04T16:57:51.032Z,17.55
2018-05-04T17:00:17.680Z,19.77
2018-05-04T17:02:44.428Z,17.75
2018-05-04T17:05:10.980Z,19.60
2018-05-04T17:07:37.600Z,19.10
2018-05-04T17:10:04.536Z,17.20
2018-05-04T17:12:31.140Z,15.85
2018-05-04T17:14:57.798Z,13.75
2018-05-04T17:17:24.418Z,17.02
2018-05-04T17:19:51.040Z,17.30
2018-05-04T17:22:17.643Z,15.80
2018-05-04T17:24:44.224Z,15.55
2018-05-04T17:27:10.809Z,16.23
2018-05-04T17:29:37.390Z,16.00
2018-05-04T17:32:04.012Z,17.27
2018-05-04T17:34:30.548Z,16.70
2018-05-04T17:36:58.187Z,16.50
2018-05-04T17:39:24.743Z,16.95
2018-05-04T17:41:51.275Z,17.70
2018-05-04T17:44:17.869Z,19.35
2018-05-04T17:46:44.531Z,17.27
2018-05-04T17:49:11.200Z,17.53
2018-05-04T17:51:37.793Z,16.35
2018-05-04T17:54:04.714Z,17.00
2018-05-04T17:56:31.328Z,17.00
2018-05-04T17:58:57.900Z,17.27
2018-05-04T18:01:24.640Z,17.65
2018-05-04T18:03:51.232Z,17.15
2018-05-04T18:06:17.760Z,16.75
2018-05-04T18:08:45.127Z,17.05
2018-05-04T18:11:11.665Z,15.93
2018-05-04T18:13:38.254Z,16.75
2018-05-04T18:16:05.234Z,15.73
2018-05-04T18:18:31.905Z,16.30
2018-05-04T18:20:58.572Z,16.92
2018-05-04T18:23:25.834Z,16.95
2018-05-04T18:25:52.428Z,17.13
2018-05-04T18:28:19.372Z,16.10
2018-05-04T18:30:46.677Z,15.20
2018-05-04T18:33:13.279Z,16.35
2018-05-04T18:35:39.826Z,14.57
2018-05-04T18:38:06.814Z,18.40
2018-05-04T18:40:33.397Z,16.50
2018-05-04T18:42:59.942Z,18.00
2018-05-04T18:45:26.562Z,16.30
2018-05-04T18:47:53.115Z,15.77
2018-05-04T18:50:19.692Z,18.83
2018-05-04T18:52:46.916Z,19.12
2018-05-04T18:55:13.563Z,19.42
2018-05-04T18:57:40.544Z,19.75
2018-05-04T19:00:07.101Z,20.20
2018-05-04T19:02:39.893Z,19.10
2018-05-04T19:05:06.552Z,21.10
2018-05-04T19:07:33.076Z,20.40
2018-05-04T19:10:00.499Z,20.15
2018-05-04T19:12:27.051Z,19.55
2018-05-04T19:14:53.628Z,17.27
2018-05-04T19:17:20.212Z,19.05
2018-05-04T19:19:46.785Z,19.25
2018-05-04T19:22:13.380Z,20.33
2018-05-04T19:24:40.869Z,21.92
2018-05-04T19:27:07.457Z,23.40
2018-05-04T19:29:35.003Z,21.20
2018-05-04T19:32:01.548Z,20.70
2018-05-04T19:34:28.156Z,22.17
2018-05-04T19:36:55.087Z,22.08
2018-05-04T19:39:21.984Z,20.90
2018-05-04T19:41:48.594Z,22.35
2018-05-04T19:44:16.504Z,19.95
2018-05-04T19:46:43.061Z,19.45
2018-05-04T19:49:09.682Z,21.50
2018-05-04T19:51:36.609Z,19.48
2018-05-04T19:54:03.495Z,18.42
2018-05-04T19:56:31.296Z,19.17
2018-05-04T19:58:58.727Z,20.67
2018-05-04T20:01:25.330Z,22.23
2018-05-04T20:03:52.940Z,20.40
2018-05-04T20:06:19.500Z,21.30
2018-05-04T20:08:46.144Z,19.50
2018-05-04T20:11:13.109Z,22.33
2018-05-04T20:13:40.063Z,22.42
2018-05-04T20:16:06.994Z,23.83
2018-05-04T20:18:33.511Z,20.08
2018-05-04T20:21:00.084Z,21.30
2018-05-04T20:23:26.767Z,23.37
2018-05-04T20:25:54.612Z,20.95
2018-05-04T20:28:21.268Z,21.60
2018-05-04T20:30:47.803Z,18.45
2018-05-04T20:33:14.376Z,23.52
2018-05-04T20:35:41.285Z,22.08
2018-05-04T20:38:07.845Z,18.73
2018-05-04T20:40:41.332Z,24.25
2018-05-04T20:43:07.908Z,24.15
2018-05-04T20:45:35.111Z,23.62
2018-05-04T20:48:02.031Z,24.48
2018-05-04T20:50:28.611Z,24.92
2018-05-04T20:52:55.534Z,22.60
2018-05-04T20:55:22.879Z,22.87
2018-05-04T20:57:50.400Z,23.45
2018-05-04T21:00:17.323Z,23.70
2018-05-04T21:02:44.881Z,22.40
2018-05-04T21:05:12.414Z,21.10
2018-05-04T21:07:39.005Z,22.52
2018-05-04T21:10:05.627Z,21.90
2018-05-04T21:12:32.161Z,20.83
2018-05-04T21:14:58.724Z,24.50
2018-05-04T21:17:25.315Z,23.35
2018-05-04T21:19:58.849Z,21.87
2018-05-04T21:22:25.455Z,21.97
2018-05-04T21:24:51.997Z,21.77
2018-05-04T21:27:18.566Z,25.48
2018-05-04T21:29:45.158Z,24.00
2018-05-04T21:32:11.752Z,25.00
2018-05-04T21:34:38.312Z,25.02
2018-05-04T21:37:04.845Z,26.15
2018-05-04T21:39:31.428Z,22.73
2018-05-04T21:41:58.331Z,25.23
2018-05-04T21:44:24.950Z,24.30
2018-05-04T21:46:51.513Z,26.75
2018-05-04T21:49:18.075Z,26.42
2018-05-04T21:51:44.685Z,23.85
2018-05-04T21:54:11.589Z,24.33
2018-05-04T21:56:38.188Z,25.08
2018-05-04T21:59:04.806Z,29.60
2018-05-04T22:01:31.360Z,27.37
2018-05-04T22:03:57.945Z,28.58
2018-05-04T22:06:24.492Z,25.88
2018-05-04T22:08:51.049Z,26.27
2018-05-04T22:11:17.599Z,26.27
2018-05-04T22:13:44.140Z,28.48
2018-05-04T22:16:10.692Z,26.25
2018-05-04T22:18:37.229Z,24.70
2018-05-04T22:21:03.832Z,27.73
2018-05-04T22:23:30.377Z,28.27
2018-05-04T22:25:56.927Z,27.15
2018-05-04T22:28:23.503Z,24.92
2018-05-04T22:30:50.424Z,28.98
2018-05-04T22:33:16.979Z,29.23
2018-05-04T22:35:43.560Z,28.05
2018-05-04T22:38:10.084Z,26.87
2018-05-04T22:40:36.639Z,30.23
2018-05-04T22:43:03.604Z,24.15
2018-05-04T22:45:30.578Z,28.58
2018-05-04T22:47:57.167Z,33.78
2018-05-04T22:50:23.752Z,34.13
2018-05-04T22:52:50.695Z,29.63
2018-05-04T22:55:17.268Z,30.42
2018-05-04T22:57:43.862Z,27.30
2018-05-04T23:00:10.487Z,27.60
2018-05-04T23:02:37.020Z,26.90
2018-05-04T23:05:03.587Z,27.45
2018-05-04T23:07:30.124Z,26.40
2018-05-04T23:09:56.761Z,29.02
2018-05-04T23:12:23.337Z,28.08
2018-05-04T23:14:49.868Z,27.62
2018-05-04T23:17:16.416Z,28.95
2018-05-04T23:19:42.946Z,30.75
2018-05-04T23:22:09.552Z,30.10
2018-05-04T23:24:36.131Z,29.30
2018-05-04T23:27:03.096Z,31.50
2018-05-04T23:29:29.636Z,31.52
2018-05-04T23:31:56.697Z,30.27
2018-05-04T23:34:23.271Z,31.40
2018-05-04T23:36:49.816Z,29.55
2018-05-04T23:39:16.376Z,28.60
2018-05-04T23:41:42.900Z,27.55
2018-05-04T23:44:09.453Z,29.15
2018-05-04T23:46:36.005Z,27.73
2018-05-04T23:49:02.542Z,27.00
2018-05-04T23:51:29.109Z,27.75
2018-05-04T23:53:55.672Z,26.83
2018-05-04T23:56:22.251Z,26.55
2018-05-04T23:58:48.890Z,26.10
